Time;durP1;ratioP1;P1;durP2;ratioP2;P2;SDS_P1;SDS_P2;PMS_P1;PMS_P2;Temp;Humidity;BMP_temperature;BMP_pressure;BME280_temperature;BME280_humidity;BME280_pressure;Samples;Min_cycle;Max_cycle;Signal;HPM_P1;HPM_P2
2020/12/11 00:02:23;;;;;;;51.17;47.37;;;;;;;8.46;100.00;96514.56;5091785;28;20444;-71
2020/12/11 00:04:50;;;;;;;51.60;47.70;;;;;;;8.50;100.00;96528.00;5092189;28;20432;-71
2020/12/11 00:07:16;;;;;;;51.57;47.23;;;;;;;8.32;100.00;96510.38;5112207;28;20443;-71
2020/12/11 00:09:42;;;;;;;54.00;50.10;;;;;;;8.35;100.00;96514.47;5116086;28;20469;-70
2020/12/11 00:12:09;;;;;;;49.70;46.00;;;;;;;8.24;100.00;96505.75;5116433;28;20461;-71
2020/12/11 00:14:36;;;;;;;50.63;46.83;;;;;;;8.30;100.00;96527.63;5115909;28;20901;-72
2020/12/11 00:17:02;;;;;;;51.40;47.53;;;;;;;8.38;100.00;96539.13;5095610;28;20494;-70
2020/12/11 00:19:29;;;;;;;51.00;47.10;;;;;;;8.38;100.00;96542.50;5094223;28;20475;-70
2020/12/11 00:21:55;;;;;;;52.60;48.80;;;;;;;8.39;100.00;96544.16;5096874;28;20472;-71
2020/12/11 00:24:22;;;;;;;50.30;46.70;;;;;;;8.42;100.00;96543.91;5115688;28;20860;-70
2020/12/11 00:26:50;;;;;;;34.20;31.60;;;;;;;8.47;100.00;96556.44;5106456;28;20938;-70
2020/12/11 00:29:16;;;;;;;34.30;31.60;;;;;;;8.51;100.00;96568.16;5101610;28;20439;-70
2020/12/11 00:31:43;;;;;;;35.73;32.57;;;;;;;8.53;100.00;96570.63;5115398;28;20467;-70
2020/12/11 00:34:10;;;;;;;36.80;33.70;;;;;;;8.59;100.00;96591.59;5103253;28;20448;-70
2020/12/11 00:36:36;;;;;;;35.03;32.03;;;;;;;8.63;100.00;96599.06;5095573;28;20519;-70
2020/12/11 00:39:03;;;;;;;35.40;32.60;;;;;;;8.66;100.00;96599.69;5112747;28;20811;-70
2020/12/11 00:41:29;;;;;;;35.63;33.03;;;;;;;8.69;100.00;96609.75;5107430;28;20442;-70
2020/12/11 00:43:56;;;;;;;40.03;37.13;;;;;;;8.73;100.00;96612.13;5096325;28;20458;-70
2020/12/11 00:46:25;;;;;;;35.73;32.73;;;;;;;8.74;100.00;96626.59;5108987;28;20439;-71
2020/12/11 00:48:53;;;;;;;34.37;31.77;;;;;;;8.77;100.00;96631.53;5115591;28;20431;-70
2020/12/11 00:51:20;;;;;;;34.80;32.00;;;;;;;8.74;100.00;96631.72;5115139;28;20475;-70
2020/12/11 00:53:47;;;;;;;34.70;32.00;;;;;;;8.81;100.00;96646.63;5115404;28;20435;-70
2020/12/11 00:56:13;;;;;;;33.60;31.00;;;;;;;8.79;100.00;96639.94;5115720;28;20435;-71
2020/12/11 00:58:40;;;;;;;35.53;32.83;;;;;;;8.81;100.00;96659.47;5111305;28;20453;-70
2020/12/11 01:01:06;;;;;;;34.53;31.73;;;;;;;8.66;100.00;96639.97;5094640;28;20432;-70
2020/12/11 01:03:33;;;;;;;34.00;31.30;;;;;;;8.67;100.00;96647.56;5100876;28;20809;-70
2020/12/11 01:06:00;;;;;;;34.43;31.53;;;;;;;8.70;100.00;96646.53;5115655;28;20416;-70
2020/12/11 01:08:26;;;;;;;33.57;30.97;;;;;;;8.69;100.00;96644.91;5114958;28;20431;-70
2020/12/11 01:10:53;;;;;;;34.30;31.47;;;;;;;8.74;100.00;96658.25;5102145;28;20460;-70
2020/12/11 01:13:19;;;;;;;34.50;31.73;;;;;;;8.79;100.00;96676.75;5095594;28;20434;-71
2020/12/11 01:15:48;;;;;;;32.57;29.97;;;;;;;8.80;100.00;96675.78;5114667;28;20910;-70
2020/12/11 01:18:14;;;;;;;32.20;29.67;;;;;;;8.65;100.00;96656.28;5113180;28;20475;-70
2020/12/11 01:20:41;;;;;;;35.57;32.37;;;;;;;8.16;100.00;96603.00;5114653;28;20431;-70
2020/12/11 01:23:08;;;;;;;40.50;36.30;;;;;;;8.35;100.00;96623.13;5103396;28;20871;-70
2020/12/11 01:25:35;;;;;;;41.60;37.70;;;;;;;7.98;100.00;96581.94;5095078;28;20444;-70
2020/12/11 01:28:01;;;;;;;40.80;37.00;;;;;;;8.04;100.00;96584.13;5114857;28;20432;-70
2020/12/11 01:30:27;;;;;;;40.33;36.30;;;;;;;7.73;100.00;96545.13;5099717;28;20463;-70
2020/12/11 01:32:54;;;;;;;40.33;36.70;;;;;;;7.58;100.00;96527.25;5094398;28;20866;-70
2020/12/11 01:35:20;;;;;;;42.67;38.53;;;;;;;7.32;100.00;96496.44;5099256;28;20436;-70
2020/12/11 01:37:49;;;;;;;42.80;38.70;;;;;;;7.35;100.00;96496.25;5114861;28;20456;-69
2020/12/11 01:40:17;;;;;;;41.93;38.13;;;;;;;7.36;100.00;96497.88;5097794;28;20444;-69
2020/12/11 01:42:43;;;;;;;41.13;37.33;;;;;;;7.50;100.00;96512.38;5112813;28;20439;-69
2020/12/11 01:45:10;;;;;;;42.27;37.90;;;;;;;7.65;100.00;96533.63;5096141;28;20443;-69
2020/12/11 01:47:39;;;;;;;48.30;38.50;;;;;;;7.59;100.00;96521.22;5094396;28;20436;-69
2020/12/11 01:50:07;;;;;;;42.50;38.30;;;;;;;7.31;100.00;96493.06;5093752;28;20479;-69
2020/12/11 01:52:34;;;;;;;45.53;40.77;;;;;;;7.49;100.00;96520.97;5110284;28;20470;-69
2020/12/11 01:55:00;;;;;;;42.93;38.73;;;;;;;7.41;100.00;96511.25;5114411;28;20427;-69
2020/12/11 01:57:34;;;;;;;41.70;37.30;;;;;;;7.68;100.00;96551.34;5107249;28;20910;-69
2020/12/11 02:00:05;;;;;;;43.37;39.07;;;;;;;7.89;100.00;96576.50;5093503;28;20961;-69
2020/12/11 02:02:36;;;;;;;44.03;39.43;;;;;;;7.97;100.00;96583.72;5097926;28;20443;-69
2020/12/11 02:05:06;;;;;;;44.70;40.20;;;;;;;8.00;100.00;96588.63;5112670;28;20496;-69
2020/12/11 02:07:37;;;;;;;43.13;38.90;;;;;;;8.08;100.00;96597.56;5097555;28;20446;-69
2020/12/11 02:10:03;;;;;;;46.87;41.33;;;;;;;8.10;100.00;96599.09;5093494;28;20452;-69
2020/12/11 02:12:31;;;;;;;43.83;39.30;;;;;;;8.21;100.00;96610.38;5093502;28;20486;-69
2020/12/11 02:14:57;;;;;;;43.00;38.67;;;;;;;8.19;100.00;96609.69;5105199;28;20443;-69
2020/12/11 02:17:26;;;;;;;44.37;39.90;;;;;;;8.28;100.00;96621.06;5114144;28;20427;-69
2020/12/11 02:19:53;;;;;;;44.13;39.87;;;;;;;8.36;100.00;96627.34;5093204;28;20913;-70
2020/12/11 02:22:20;;;;;;;43.37;39.27;;;;;;;8.44;100.00;96638.84;5093105;28;20428;-70
2020/12/11 02:24:47;;;;;;;44.67;40.20;;;;;;;8.49;100.00;96649.59;5093776;28;20436;-70
2020/12/11 02:27:13;;;;;;;45.20;40.50;;;;;;;8.58;100.00;96658.44;5093711;28;20428;-70
2020/12/11 02:29:40;;;;;;;44.83;40.00;;;;;;;8.62;100.00;96667.63;5092103;28;20506;-70
2020/12/11 02:32:06;;;;;;;44.43;39.83;;;;;;;8.62;100.00;96667.63;5092760;28;20475;-69
2020/12/11 02:34:32;;;;;;;45.10;40.43;;;;;;;8.66;100.00;96665.66;5103885;28;20438;-69
2020/12/11 02:37:02;;;;;;;45.03;40.53;;;;;;;8.66;100.00;96660.53;5113477;28;20435;-70
2020/12/11 02:39:30;;;;;;;45.37;40.80;;;;;;;8.72;100.00;96661.84;5113317;28;20423;-69
2020/12/11 02:41:57;;;;;;;48.87;43.97;;;;;;;8.74;100.00;96671.09;5098661;28;20454;-69
2020/12/11 02:44:23;;;;;;;45.13;40.63;;;;;;;8.77;100.00;96670.88;5097105;28;20435;-70
2020/12/11 02:46:50;;;;;;;47.40;42.60;;;;;;;8.74;100.00;96660.81;5112988;28;20807;-70
2020/12/11 02:49:16;;;;;;;47.63;42.77;;;;;;;8.73;100.00;96659.19;5113106;28;20504;-70
2020/12/11 02:51:43;;;;;;;46.97;42.37;;;;;;;8.79;100.00;96660.50;5103967;28;20474;-70
2020/12/11 02:54:09;;;;;;;48.87;44.17;;;;;;;8.68;100.00;96640.69;5092437;28;20426;-69
2020/12/11 02:56:36;;;;;;;49.70;44.97;;;;;;;8.62;100.00;96634.22;5104337;28;20476;-69
2020/12/11 02:59:03;;;;;;;53.77;46.07;;;;;;;8.69;100.00;96644.91;5112862;28;20430;-69
2020/12/11 03:01:29;;;;;;;53.03;47.67;;;;;;;8.65;100.00;96639.13;5113089;28;20445;-69
2020/12/11 03:03:56;;;;;;;49.37;44.70;;;;;;;8.61;100.00;96634.31;5099673;28;20451;-69
2020/12/11 03:06:27;;;;;;;53.30;48.10;;;;;;;8.58;100.00;96631.03;5092390;28;20949;-70
2020/12/11 03:08:54;;;;;;;54.83;49.50;;;;;;;8.62;100.00;96618.00;5092698;28;20916;-69
2020/12/11 03:11:20;;;;;;;54.30;49.00;;;;;;;8.64;100.00;96628.97;5097674;28;20456;-69
2020/12/11 03:13:48;;;;;;;54.20;48.70;;;;;;;8.67;100.00;96628.78;5094677;28;20795;-69
2020/12/11 03:16:16;;;;;;;55.37;48.10;;;;;;;8.73;100.00;96633.50;5094723;28;20444;-69
2020/12/11 03:18:42;;;;;;;54.47;48.97;;;;;;;8.67;100.00;96621.06;5091138;28;20486;-69
2020/12/11 03:21:09;;;;;;;51.43;46.33;;;;;;;8.72;100.00;96618.16;5092075;28;20437;-69
2020/12/11 03:23:35;;;;;;;54.17;48.80;;;;;;;8.76;100.00;96629.91;5092041;28;20972;-69
2020/12/11 03:26:02;;;;;;;54.90;49.40;;;;;;;8.73;100.00;96624.97;5092307;28;20800;-69
2020/12/11 03:28:28;;;;;;;55.40;50.00;;;;;;;8.64;100.00;96604.13;5107958;28;20450;-69
2020/12/11 03:30:55;;;;;;;56.50;51.13;;;;;;;8.66;100.00;96614.28;5102919;28;20443;-70
2020/12/11 03:33:22;;;;;;;63.63;50.87;;;;;;;8.64;100.00;96605.88;5091926;28;20463;-69
2020/12/11 03:35:48;;;;;;;52.37;47.03;;;;;;;8.52;100.00;96604.91;5095448;28;20451;-69
2020/12/11 03:38:14;;;;;;;60.57;54.00;;;;;;;8.31;100.00;96572.09;5112261;28;20921;-69
2020/12/11 03:40:41;;;;;;;72.00;58.23;;;;;;;8.40;100.00;96589.41;5102172;28;20443;-69
2020/12/11 03:43:07;;;;;;;66.53;59.43;;;;;;;8.41;100.00;96592.81;5103216;28;20449;-69
2020/12/11 03:45:33;;;;;;;64.23;57.27;;;;;;;8.33;100.00;96580.50;5116992;28;20935;-69
2020/12/11 03:48:01;;;;;;;62.40;55.40;;;;;;;8.36;100.00;96586.25;5117154;28;20790;-69
2020/12/11 03:50:27;;;;;;;69.00;60.00;;;;;;;8.34;100.00;96577.84;5116324;28;20445;-69
2020/12/11 03:52:53;;;;;;;71.60;58.67;;;;;;;8.15;100.00;96554.34;5116419;28;20488;-69
2020/12/11 03:55:20;;;;;;;62.37;55.70;;;;;;;8.05;100.00;96534.44;5116596;28;20453;-69
2020/12/11 03:57:46;;;;;;;64.17;57.50;;;;;;;8.22;100.00;96560.72;5113453;28;20438;-69
2020/12/11 04:00:13;;;;;;;73.27;61.40;;;;;;;8.23;100.00;96555.47;5095754;28;20444;-69
2020/12/11 04:02:39;;;;;;;66.37;58.20;;;;;;;8.29;100.00;96564.47;5114769;28;20445;-69
2020/12/11 04:05:07;;;;;;;64.50;57.10;;;;;;;8.18;100.00;96551.56;5116181;28;20810;-69
2020/12/11 04:07:34;;;;;;;62.30;55.90;;;;;;;8.27;100.00;96560.38;5097591;28;20450;-69
2020/12/11 04:10:07;;;;;;;61.70;55.37;;;;;;;8.38;100.00;96570.72;5096134;28;20452;-69
2020/12/11 04:12:34;;;;;;;60.10;54.00;;;;;;;8.53;100.00;96586.03;5112537;28;20473;-69
2020/12/11 04:15:00;;;;;;;63.93;57.37;;;;;;;8.55;100.00;96591.88;5105766;28;20446;-69
2020/12/11 04:17:26;;;;;;;62.30;56.10;;;;;;;8.54;100.00;96585.91;5095238;28;20443;-69
2020/12/11 04:19:53;;;;;;;63.37;56.90;;;;;;;8.62;100.00;96590.56;5094315;28;20483;-69
2020/12/11 04:22:20;;;;;;;62.87;56.57;;;;;;;8.64;100.00;96581.00;5111398;28;20966;-69
2020/12/11 04:24:46;;;;;;;61.07;55.10;;;;;;;8.58;100.00;96571.13;5106437;28;20451;-69
2020/12/11 04:27:13;;;;;;;60.70;54.60;;;;;;;8.58;100.00;96569.38;5095325;28;20810;-69
2020/12/11 04:29:39;;;;;;;59.67;53.53;;;;;;;8.62;100.00;96564.88;5095263;28;20442;-69
2020/12/11 04:32:05;;;;;;;59.90;54.10;;;;;;;8.66;100.00;96568.88;5109464;28;20473;-69
2020/12/11 04:34:32;;;;;;;58.80;53.30;;;;;;;8.68;100.00;96571.31;5115272;28;20969;-69
2020/12/11 04:36:58;;;;;;;60.23;54.63;;;;;;;8.67;100.00;96557.66;5115589;28;20814;-69
2020/12/11 04:39:26;;;;;;;59.33;54.07;;;;;;;8.68;100.00;96558.47;5115577;28;20439;-69
2020/12/11 04:41:53;;;;;;;56.93;51.67;;;;;;;8.50;100.00;96533.13;5098672;28;20453;-69
2020/12/11 04:44:20;;;;;;;58.30;53.10;;;;;;;8.54;100.00;96526.84;5097352;28;20446;-69
2020/12/11 04:46:46;;;;;;;57.73;52.53;;;;;;;8.54;100.00;96524.28;5115207;28;20445;-69
2020/12/11 04:49:19;;;;;;;56.60;51.53;;;;;;;8.42;100.00;96502.03;5113068;28;20443;-69
2020/12/11 04:51:49;;;;;;;57.03;51.53;;;;;;;8.50;100.00;96502.31;5093527;28;20474;-69
2020/12/11 04:54:19;;;;;;;59.70;54.40;;;;;;;8.56;100.00;96499.31;5095421;28;20428;-69
2020/12/11 04:56:49;;;;;;;56.77;51.63;;;;;;;8.56;100.00;96490.78;5106159;28;20819;-69
2020/12/11 04:59:16;;;;;;;60.13;54.70;;;;;;;8.51;100.00;96467.19;5115164;28;20551;-69
2020/12/11 05:01:43;;;;;;;58.43;53.03;;;;;;;8.34;100.00;96448.66;5100924;28;20440;-69
2020/12/11 05:04:09;;;;;;;58.93;53.77;;;;;;;8.44;100.00;96449.66;5113976;28;20921;-70
2020/12/11 05:06:36;;;;;;;61.60;55.97;;;;;;;8.45;100.00;96447.88;5095293;28;20441;-68
2020/12/11 05:09:14;;;;;;;59.73;54.13;;;;;;;8.34;100.00;96431.50;5094059;28;20436;-69
2020/12/11 05:11:42;;;;;;;58.90;53.30;;;;;;;8.31;100.00;96424.00;5107984;28;20465;-69
2020/12/11 05:14:20;;;;;;;57.07;52.00;;;;;;;8.26;100.00;96410.69;5114440;28;20473;-70
2020/12/11 05:17:00;;;;;;;59.13;53.80;;;;;;;8.45;100.00;96429.91;5094260;28;20438;-68
2020/12/11 05:19:28;;;;;;;58.27;52.23;;;;;;;8.44;100.00;96421.41;5093181;28;20474;-69
2020/12/11 05:22:07;;;;;;;59.17;53.60;;;;;;;8.36;100.00;96414.25;5094544;28;20804;-68
2020/12/11 05:24:42;;;;;;;52.03;47.43;;;;;;;8.19;100.00;96389.78;5093914;28;20953;-68
2020/12/11 05:27:27;;;;;;;52.20;46.80;;;;;;;8.16;100.00;96386.56;5094318;28;20427;-69
2020/12/11 05:29:54;;;;;;;53.07;48.47;;;;;;;8.00;100.00;96364.56;5093959;28;20424;-68
2020/12/11 05:32:35;;;;;;;57.17;52.30;;;;;;;8.17;100.00;96377.97;5094350;28;20466;-69
2020/12/11 05:35:01;;;;;;;57.17;52.20;;;;;;;8.27;100.00;96391.78;5093843;28;20428;-69
2020/12/11 05:37:27;;;;;;;57.97;52.53;;;;;;;8.27;100.00;96391.78;5094085;28;20451;-70
2020/12/11 05:39:54;;;;;;;62.27;56.17;;;;;;;8.27;100.00;96384.06;5094116;28;20444;-69
2020/12/11 05:42:20;;;;;;;56.03;51.00;;;;;;;8.16;100.00;96376.31;5093568;28;20424;-69
2020/12/11 05:44:46;;;;;;;57.10;51.60;;;;;;;8.23;100.00;96383.50;5094280;28;20462;-69
2020/12/11 05:47:19;;;;;;;63.27;56.90;;;;;;;8.00;100.00;96350.00;5093566;28;20451;-69
2020/12/11 05:49:46;;;;;;;59.07;52.97;;;;;;;7.81;100.00;96332.53;5093390;28;20432;-69
2020/12/11 05:52:14;;;;;;;60.50;55.40;;;;;;;7.64;100.00;96308.84;5093724;28;20463;-70
2020/12/11 05:54:45;;;;;;;310.80;179.87;;;;;;;7.79;100.00;96326.69;5093670;28;20448;-70
2020/12/11 05:57:13;;;;;;;136.33;94.93;;;;;;;7.62;100.00;96307.31;5093848;28;20440;-70
2020/12/11 05:59:40;;;;;;;65.57;58.77;;;;;;;7.91;100.00;96340.38;5093534;28;20434;-69
2020/12/11 06:02:07;;;;;;;57.83;51.87;;;;;;;8.00;100.00;96349.16;5094312;28;20443;-69
2020/12/11 06:04:35;;;;;;;56.50;50.60;;;;;;;8.06;100.00;96358.19;5093151;28;20958;-70
2020/12/11 06:07:01;;;;;;;58.47;52.50;;;;;;;8.17;100.00;96367.69;5093813;28;20952;-69
2020/12/11 06:09:37;;;;;;;60.87;55.47;;;;;;;8.28;100.00;96372.91;5109547;28;20517;-69
2020/12/11 06:12:05;;;;;;;61.57;55.77;;;;;;;8.23;100.00;96359.56;5112596;28;20458;-70
2020/12/11 06:15:04;;;;;;;57.33;51.93;;;;;;;8.12;100.00;96342.34;5093204;28;20436;-69
2020/12/11 06:17:34;;;;;;;53.47;48.27;;;;;;;8.29;100.00;96359.13;5093029;28;20489;-69
2020/12/11 06:20:04;;;;;;;53.40;48.40;;;;;;;8.04;100.00;96334.41;5091666;28;20479;-69
2020/12/11 06:22:30;;;;;;;53.07;48.17;;;;;;;7.90;100.00;96313.94;5092401;28;20436;-70
2020/12/11 06:24:57;;;;;;;52.00;47.20;;;;;;;7.83;100.00;96301.63;5110501;28;20534;-70
2020/12/11 06:27:33;;;;;;;50.70;45.80;;;;;;;8.02;100.00;96319.09;5111448;28;20431;-70
2020/12/11 06:30:19;;;;;;;398.17;223.90;;;;;;;8.19;100.00;96340.19;5112995;28;20431;-70
2020/12/11 06:32:48;;;;;;;99.37;72.73;;;;;;;8.06;100.00;96324.84;5113334;28;20474;-72
2020/12/11 06:35:15;;;;;;;49.57;45.07;;;;;;;7.90;100.00;96308.78;5113325;28;20427;-71
2020/12/11 06:37:42;;;;;;;48.30;43.97;;;;;;;7.85;100.00;96302.34;5113093;28;20505;-71
2020/12/11 06:40:09;;;;;;;48.97;44.27;;;;;;;7.99;100.00;96311.63;5114128;28;20431;-71
2020/12/11 06:42:43;;;;;;;51.63;46.73;;;;;;;8.13;100.00;96336.31;5113202;28;20941;-72
2020/12/11 06:45:21;;;;;;;55.33;49.70;;;;;;;8.31;100.00;96353.91;5113724;28;20794;-72
2020/12/11 06:47:52;;;;;;;55.83;49.90;;;;;;;8.36;100.00;96346.66;5113572;28;20431;-84
2020/12/11 06:50:20;;;;;;;193.20;120.77;;;;;;;8.42;100.00;96356.47;5109327;28;20444;-72
2020/12/11 06:52:47;;;;;;;314.57;180.43;;;;;;;8.40;100.00;96355.78;5092398;28;20475;-72
2020/12/11 06:55:16;;;;;;;84.73;62.53;;;;;;;8.38;100.00;96347.38;5094551;28;20432;-70
2020/12/11 06:57:45;;;;;;;49.97;45.30;;;;;;;8.27;100.00;96337.88;5094701;28;21005;-71
2020/12/11 07:00:30;;;;;;;49.70;45.20;;;;;;;8.04;100.00;96309.56;5093319;28;20435;-71
2020/12/11 07:03:26;;;;;;;46.70;42.77;;;;;;;7.97;100.00;96305.78;5093564;28;20432;-72
2020/12/11 07:06:04;;;;;;;46.07;42.17;;;;;;;8.10;100.00;96321.13;5096464;28;20438;-73
2020/12/11 07:08:30;;;;;;;47.00;43.30;;;;;;;8.21;100.00;96334.00;5094653;28;20460;-72
2020/12/11 07:11:13;;;;;;;46.43;42.50;;;;;;;8.00;100.00;96316.63;5111887;28;20490;-72
2020/12/11 07:13:50;;;;;;;46.47;42.37;;;;;;;8.26;100.00;96331.13;5109513;28;20466;-72
2020/12/11 07:16:21;;;;;;;45.33;41.63;;;;;;;8.36;100.00;96337.22;5091698;28;20432;-72
2020/12/11 07:18:47;;;;;;;47.03;43.13;;;;;;;8.31;100.00;96326.44;5090873;28;20476;-71
2020/12/11 07:21:15;;;;;;;46.73;42.70;;;;;;;8.30;100.00;96321.44;5091678;28;20910;-71
2020/12/11 07:23:41;;;;;;;45.97;42.10;;;;;;;8.31;100.00;96325.66;5092763;28;20434;-69
2020/12/11 07:26:08;;;;;;;100.47;70.73;;;;;;;8.38;100.00;96328.59;5104342;27;20815;-68
2020/12/11 07:28:35;;;;;;;107.57;77.90;;;;;;;8.63;100.00;96349.94;5091824;28;20435;-71
2020/12/11 07:31:02;;;;;;;50.97;46.17;;;;;;;8.84;100.00;96373.25;5096419;28;20814;-71
2020/12/11 07:33:33;;;;;;;47.77;43.67;;;;;;;8.91;100.00;96371.88;5096387;28;20479;-70
2020/12/11 07:36:04;;;;;;;47.50;43.17;;;;;;;8.84;100.00;96362.16;5100485;28;20439;-71
2020/12/11 07:38:32;;;;;;;51.43;46.53;;;;;;;9.03;100.00;96372.69;5111932;28;20423;-70
2020/12/11 07:41:03;;;;;;;47.97;43.90;;;;;;;8.61;100.00;96326.94;5112184;28;20442;-71
2020/12/11 07:43:29;;;;;;;47.27;43.07;;;;;;;8.72;100.00;96336.44;5112038;28;20427;-71
2020/12/11 07:45:56;;;;;;;48.40;43.80;;;;;;;8.85;100.00;96341.47;5111701;28;20416;-71
2020/12/11 07:48:22;;;;;;;51.60;46.70;;;;;;;8.53;100.00;96308.69;5112061;28;20447;-70
2020/12/11 07:50:49;;;;;;;53.90;48.50;;;;;;;8.82;100.00;96334.84;5112010;28;20465;-70
2020/12/11 07:53:15;;;;;;;63.33;55.70;;;;;;;8.24;100.00;96263.69;5111675;28;21030;-69
2020/12/11 07:55:42;;;;;;;61.80;55.40;;;;;;;8.38;100.00;96272.91;5111854;28;20435;-69
2020/12/11 07:58:09;;;;;;;170.27;121.93;;;;;;;8.30;100.00;96258.09;5112296;28;20544;-71
2020/12/11 08:00:38;;;;;;;138.73;83.90;;;;;;;8.47;100.00;96261.97;5111962;28;20431;-70
2020/12/11 08:03:06;;;;;;;56.23;50.60;;;;;;;8.69;100.00;96290.44;5111821;28;20476;-71
2020/12/11 08:05:34;;;;;;;52.13;47.43;;;;;;;8.84;100.00;96298.75;5112031;28;20439;-70
2020/12/11 08:08:01;;;;;;;50.93;45.10;;;;;;;9.02;100.00;96309.41;5111435;28;20446;-70
2020/12/11 08:10:38;;;;;;;48.40;43.40;;;;;;;8.88;100.00;96300.16;5111851;28;20804;-70
2020/12/11 08:13:10;;;;;;;44.40;40.20;;;;;;;8.76;100.00;96283.88;5111336;28;20469;-70
2020/12/11 08:15:37;;;;;;;47.47;43.37;;;;;;;8.34;100.00;96235.56;5111577;28;20434;-69
2020/12/11 08:18:12;;;;;;;41.03;37.13;;;;;;;8.45;100.00;96230.47;5111482;28;20426;-70
2020/12/11 08:20:48;;;;;;;45.13;40.53;;;;;;;8.42;100.00;96220.41;5110890;28;21015;-70
2020/12/11 08:23:19;;;;;;;46.07;41.50;;;;;;;8.50;100.00;96217.28;5110850;28;20824;-69
2020/12/11 08:25:45;;;;;;;47.40;42.00;;;;;;;8.41;100.00;96202.56;5111311;28;20864;-70
2020/12/11 08:28:13;;;;;;;46.73;42.07;;;;;;;8.45;100.00;96203.97;5114488;28;20445;-71
2020/12/11 08:30:40;;;;;;;44.37;39.60;;;;;;;8.54;100.00;96207.59;5115287;28;20595;-71
2020/12/11 08:33:10;;;;;;;46.10;38.70;;;;;;;8.70;100.00;96213.25;5114946;28;20478;-71
2020/12/11 08:35:37;;;;;;;50.13;41.87;;;;;;;8.81;100.00;96212.44;5114996;28;20488;-72
2020/12/11 08:38:05;;;;;;;49.53;42.80;;;;;;;9.03;100.00;96225.38;5114844;28;20835;-71
2020/12/11 08:40:47;;;;;;;55.93;42.90;;;;;;;9.00;100.00;96216.19;5115017;28;20496;-70
2020/12/11 08:43:25;;;;;;;53.03;42.53;;;;;;;8.65;100.00;96176.00;5114745;28;20513;-71
2020/12/11 08:46:03;;;;;;;52.80;44.47;;;;;;;8.58;100.00;96145.66;5114706;28;20520;-70
2020/12/11 08:48:37;;;;;;;47.53;42.40;;;;;;;8.81;100.00;96153.34;5114880;28;20523;-70
2020/12/11 08:51:04;;;;;;;49.30;43.90;;;;;;;8.78;100.00;96139.94;5115267;28;20467;-74
2020/12/11 08:53:35;;;;;;;47.30;42.10;;;;;;;8.72;100.00;96120.66;5114062;28;20585;-72
2020/12/11 08:56:02;;;;;;;54.60;46.00;;;;;;;9.14;100.00;96144.91;5114463;28;20439;-72
2020/12/11 08:58:29;;;;;;;105.20;71.43;;;;;;;9.16;100.00;96132.75;5114473;28;20912;-69
2020/12/11 09:00:55;;;;;;;310.17;169.20;;;;;;;9.11;100.00;96104.00;5114608;28;20929;-70
2020/12/11 09:03:22;;;;;;;164.00;99.07;;;;;;;9.22;100.00;96096.28;5114715;28;20835;-72
2020/12/11 09:05:49;;;;;;;79.03;56.60;;;;;;;9.16;100.00;96073.63;5114261;28;20435;-71
2020/12/11 09:08:16;;;;;;;74.83;51.03;;;;;;;9.22;100.00;96054.31;5114808;28;20561;-69
2020/12/11 09:10:42;;;;;;;65.30;48.40;;;;;;;9.18;100.00;96038.34;5114495;28;20986;-68
2020/12/11 09:13:12;;;;;;;62.13;48.60;;;;;;;9.37;100.00;96032.53;5114734;28;20601;-71
2020/12/11 09:15:40;;;;;;;65.13;48.07;;;;;;;9.21;100.00;96003.84;5114772;28;20442;-70
2020/12/11 09:18:06;;;;;;;58.93;44.77;;;;;;;9.02;100.00;95961.66;5114894;28;20438;-70
2020/12/11 09:20:39;;;;;;;68.70;52.03;;;;;;;9.33;100.00;95948.03;5111761;28;20477;-69
2020/12/11 09:23:06;;;;;;;48.63;42.73;;;;;;;9.23;100.00;95917.94;5113661;28;20427;-71
2020/12/11 09:25:32;;;;;;;58.97;46.27;;;;;;;9.18;100.00;95888.44;5114329;28;20853;-69
2020/12/11 09:28:02;;;;;;;139.23;83.70;;;;;;;9.29;100.00;95867.81;5114445;28;20612;-69
2020/12/11 09:30:33;;;;;;;41.60;36.70;;;;;;;8.86;100.00;95811.31;5114664;28;20443;-70
2020/12/11 09:33:05;;;;;;;39.57;35.60;;;;;;;8.98;100.00;95776.09;5114039;28;20466;-71
2020/12/11 09:35:31;;;;;;;45.23;40.50;;;;;;;8.66;100.00;95717.94;5113758;28;20940;-70
2020/12/11 09:38:01;;;;;;;51.10;42.33;;;;;;;8.55;100.00;95686.25;5113400;28;20428;-70
2020/12/11 09:40:33;;;;;;;62.10;48.00;;;;;;;8.84;100.00;95686.50;5113953;28;20445;-71
2020/12/11 09:45:54;;;;;;;65.27;43.90;;;;;;;8.87;100.00;95653.66;5114052;28;20473;-69
2020/12/11 09:48:31;;;;;;;52.43;41.73;;;;;;;8.34;100.00;95588.72;5113557;28;20875;-69
2020/12/11 09:51:09;;;;;;;57.00;42.10;;;;;;;8.46;100.00;95577.44;5113602;28;20525;-69
2020/12/11 09:56:22;;;;;;;57.63;45.13;;;;;;;8.66;100.00;95556.16;5107825;28;20438;-70
2020/12/11 09:58:50;;;;;;;90.43;61.50;;;;;;;8.85;100.00;95545.09;5113232;28;20438;-70
2020/12/11 10:01:21;;;;;;;78.47;57.77;;;;;;;8.91;100.00;95528.34;5113012;28;20868;-71
2020/12/11 10:03:48;;;;;;;71.60;56.20;;;;;;;9.07;100.00;95520.09;5113695;28;20430;-70
2020/12/11 10:06:23;;;;;;;89.03;61.87;;;;;;;9.20;100.00;95501.84;5113610;28;20429;-70
2020/12/11 10:08:49;;;;;;;48.17;40.80;;;;;;;9.08;100.00;95467.75;5113308;28;20452;-70
2020/12/11 10:11:18;;;;;;;47.47;38.47;;;;;;;9.19;100.00;95441.09;5113836;28;20453;-70
2020/12/11 10:13:44;;;;;;;47.97;38.50;;;;;;;9.16;100.00;95411.34;5113764;28;20473;-71
2020/12/11 10:16:15;;;;;;;44.47;36.20;;;;;;;9.23;100.00;95377.41;5113015;28;20883;-70
2020/12/11 10:18:41;;;;;;;43.63;37.87;;;;;;;9.21;100.00;95338.97;5113037;28;20422;-71
2020/12/11 10:21:10;;;;;;;44.90;36.53;;;;;;;9.13;100.00;95284.91;5111573;28;20473;-71
2020/12/11 10:23:37;;;;;;;43.47;37.30;;;;;;;9.03;100.00;95246.38;5112958;28;20806;-70
2020/12/11 10:26:06;;;;;;;46.43;38.13;;;;;;;9.02;100.00;95198.53;5112613;28;20438;-71
2020/12/11 10:28:32;;;;;;;46.90;39.77;;;;;;;9.20;100.00;95164.34;5112502;28;20441;-71
2020/12/11 10:30:59;;;;;;;49.57;41.07;;;;;;;9.13;100.00;95107.59;5113071;28;20438;-70
2020/12/11 10:33:25;;;;;;;52.13;41.63;;;;;;;9.20;100.00;95044.38;5112555;28;20463;-71
2020/12/11 10:35:51;;;;;;;67.93;42.63;;;;;;;9.09;100.00;94985.50;5112300;28;20447;-70
2020/12/11 10:38:19;;;;;;;50.37;39.93;;;;;;;9.22;100.00;94934.53;5113204;28;20449;-70
2020/12/11 10:40:46;;;;;;;51.43;41.50;;;;;;;9.47;100.00;94880.69;5112467;28;20435;-71
2020/12/11 10:43:12;;;;;;;55.07;43.07;;;;;;;9.35;100.00;94812.50;5112429;28;20446;-71
2020/12/11 10:45:39;;;;;;;52.53;40.70;;;;;;;9.43;100.00;94753.41;5112649;28;20454;-70
2020/12/11 10:48:05;;;;;;;54.53;39.20;;;;;;;9.21;100.00;94677.69;5112106;28;20552;-70
2020/12/11 10:50:31;;;;;;;53.40;41.30;;;;;;;9.36;100.00;94619.56;5112077;28;20796;-70
2020/12/11 10:52:58;;;;;;;54.77;39.43;;;;;;;9.23;100.00;94542.97;5112763;28;20482;-71
2020/12/11 10:55:26;;;;;;;58.73;42.07;;;;;;;9.21;100.00;94484.97;5112743;28;20469;-72
2020/12/11 10:57:52;;;;;;;56.40;40.90;;;;;;;9.29;100.00;94425.88;5113318;28;20529;-69
2020/12/11 11:00:19;;;;;;;47.70;39.80;;;;;;;9.42;100.00;94368.03;5112831;28;20423;-71
2020/12/11 11:02:45;;;;;;;52.47;41.07;;;;;;;9.55;100.00;94316.06;5112559;28;20439;-69
2020/12/11 11:05:11;;;;;;;57.60;39.97;;;;;;;9.69;100.00;94271.66;5112466;28;20443;-70
2020/12/11 11:07:38;;;;;;;55.03;41.40;;;;;;;9.84;100.00;94228.00;5112446;28;20462;-68
2020/12/11 11:10:15;;;;;;;53.50;39.93;;;;;;;9.78;100.00;94156.69;5111747;28;20503;-70
2020/12/11 11:12:45;;;;;;;64.43;41.07;;;;;;;9.75;100.00;94090.16;5112119;28;20465;-77
2020/12/11 11:15:31;;;;;;;57.50;40.90;;;;;;;9.95;100.00;94053.63;5111920;28;20430;-70
2020/12/11 11:20:52;;;;;;;57.53;40.87;;;;;;;10.04;100.00;93941.16;5110580;28;20470;-71
2020/12/11 11:23:35;;;;;;;49.77;37.13;;;;;;;10.09;100.00;93882.25;5111912;28;20427;-70
2020/12/11 11:28:46;;;;;;;53.17;41.67;;;;;;;9.84;100.00;93777.13;5111485;28;20945;-70
2020/12/11 11:31:12;;;;;;;57.90;41.60;;;;;;;9.81;100.00;93711.44;5111824;28;20507;-69
2020/12/11 11:33:39;;;;;;;61.33;43.03;;;;;;;9.87;100.00;93662.81;5111895;28;20653;-69
2020/12/11 11:36:06;;;;;;;55.30;41.23;;;;;;;9.90;100.00;93623.88;5112126;28;20435;-70